Time;durP1;ratioP1;P1;durP2;ratioP2;P2;SDS_P1;SDS_P2;PMS_P1;PMS_P2;Temp;Humidity;BMP_temperature;BMP_pressure;BME280_temperature;BME280_humidity;BME280_pressure;Samples;Min_cycle;Max_cycle;Signal;HPM_P1;HPM_P2
2023/03/08 00:02:16;;;;;;;5.13;3.33;;;1.10;99.90;;;;;;4961427;28;20054;-66
2023/03/08 00:04:43;;;;;;;4.43;3.30;;;1.10;99.90;;;;;;4962896;28;20184;-66
2023/03/08 00:07:10;;;;;;;5.45;3.40;;;1.10;99.90;;;;;;4963395;28;20049;-67
2023/03/08 00:09:38;;;;;;;4.22;3.15;;;1.10;99.90;;;;;;4962412;28;20042;-67
2023/03/08 00:12:06;;;;;;;5.15;3.28;;;1.10;99.90;;;;;;4960896;28;20154;-69
2023/03/08 00:14:33;;;;;;;3.55;2.80;;;1.10;99.90;;;;;;4963776;28;20067;-68
2023/03/08 00:17:01;;;;;;;3.58;2.80;;;1.20;99.90;;;;;;4962403;28;20057;-68
2023/03/08 00:19:28;;;;;;;7.28;3.78;;;1.20;99.90;;;;;;4963411;28;20047;-69
2023/03/08 00:21:55;;;;;;;3.95;3.15;;;1.20;99.90;;;;;;4960769;28;20051;-67
2023/03/08 00:24:22;;;;;;;5.13;2.97;;;1.20;99.90;;;;;;4962635;28;21985;-68
2023/03/08 00:26:49;;;;;;;3.47;2.65;;;1.20;99.90;;;;;;4962708;28;20054;-66
2023/03/08 00:29:16;;;;;;;3.55;2.30;;;1.20;99.90;;;;;;4962398;28;20047;-69
2023/03/08 00:31:43;;;;;;;3.80;3.38;;;1.10;99.90;;;;;;4962990;28;20054;-66
2023/03/08 00:34:11;;;;;;;6.00;3.45;;;1.10;99.90;;;;;;4990752;28;21354;-67
2023/03/08 00:36:40;;;;;;;3.40;2.40;;;1.10;99.90;;;;;;4963131;28;20054;-69
2023/03/08 00:39:08;;;;;;;5.15;2.88;;;1.10;99.90;;;;;;4962178;28;20054;-65
2023/03/08 00:41:36;;;;;;;7.38;3.25;;;1.10;99.90;;;;;;4963285;28;20070;-67
2023/03/08 00:44:03;;;;;;;6.70;2.20;;;1.10;99.90;;;;;;4960522;28;20479;-70
2023/03/08 00:46:30;;;;;;;3.97;2.50;;;1.10;99.90;;;;;;4962045;28;20057;-72
2023/03/08 00:48:57;;;;;;;4.15;2.60;;;1.10;99.90;;;;;;4962450;28;20053;-66
2023/03/08 00:51:25;;;;;;;3.97;2.67;;;1.10;99.90;;;;;;4993375;28;20137;-67
2023/03/08 00:53:52;;;;;;;4.18;3.17;;;1.20;99.90;;;;;;4960865;28;20078;-68
2023/03/08 00:56:20;;;;;;;4.97;4.22;;;1.20;99.90;;;;;;4960502;28;20061;-67
2023/03/08 00:58:47;;;;;;;3.63;2.50;;;1.20;99.90;;;;;;4961528;28;20059;-66
2023/03/08 01:01:16;;;;;;;6.15;1.88;;;1.20;99.90;;;;;;4960098;28;20133;-68
2023/03/08 01:03:45;;;;;;;2.38;1.83;;;1.20;99.90;;;;;;4960204;28;20050;-69
2023/03/08 01:06:14;;;;;;;4.05;1.90;;;1.10;99.90;;;;;;4960584;28;20130;-67
2023/03/08 01:08:42;;;;;;;4.05;1.88;;;1.10;99.90;;;;;;4961236;28;20145;-69
2023/03/08 01:11:18;;;;;;;2.15;1.00;;;1.10;99.90;;;;;;4961529;28;20053;-66
2023/03/08 01:13:46;;;;;;;1.23;0.63;;;1.10;99.90;;;;;;4960024;28;20078;-68
2023/03/08 01:16:19;;;;;;;1.88;0.73;;;1.10;99.90;;;;;;4957117;28;20710;-67
2023/03/08 01:18:46;;;;;;;1.25;0.70;;;1.20;99.90;;;;;;4961704;28;20101;-67
2023/03/08 01:21:13;;;;;;;5.32;1.33;;;1.20;99.90;;;;;;4961312;28;20055;-67
2023/03/08 01:23:41;;;;;;;2.90;0.90;;;1.20;99.90;;;;;;4959475;28;20058;-70
2023/03/08 01:26:15;;;;;;;1.50;1.08;;;1.20;99.90;;;;;;4960231;28;20137;-67
2023/03/08 01:28:43;;;;;;;4.95;1.20;;;1.20;99.90;;;;;;4961498;28;20166;-68
2023/03/08 01:31:11;;;;;;;3.20;1.23;;;1.20;99.90;;;;;;4961132;28;20057;-67
2023/03/08 01:33:40;;;;;;;1.65;1.40;;;1.20;99.90;;;;;;4959665;28;20927;-71
2023/03/08 01:36:09;;;;;;;3.10;1.83;;;1.20;99.90;;;;;;4959650;28;20050;-67
2023/03/08 01:38:37;;;;;;;3.13;1.48;;;1.30;99.90;;;;;;4961245;28;20704;-64
2023/03/08 01:41:05;;;;;;;2.92;1.50;;;1.30;99.90;;;;;;4960765;28;20051;-67
2023/03/08 01:43:35;;;;;;;1.75;1.30;;;1.30;99.90;;;;;;4961149;28;20110;-64
2023/03/08 01:46:31;;;;;;;2.08;1.88;;;1.40;99.90;;;;;;4959041;28;20077;-66
2023/03/08 01:49:14;;;;;;;1.52;1.20;;;1.40;99.90;;;;;;4960010;28;20054;-68
2023/03/08 01:51:53;;;;;;;3.95;1.58;;;1.50;99.90;;;;;;4961168;28;20057;-67
2023/03/08 01:54:27;;;;;;;1.75;1.45;;;1.40;99.90;;;;;;4990703;28;20059;-64
2023/03/08 01:57:00;;;;;;;2.17;1.50;;;1.30;99.90;;;;;;4959290;28;20062;-68
2023/03/08 01:59:29;;;;;;;3.28;1.17;;;1.20;99.90;;;;;;4959974;28;20063;-69
2023/03/08 02:01:56;;;;;;;4.25;2.10;;;1.20;99.90;;;;;;4958181;28;20138;-69
2023/03/08 02:04:25;;;;;;;2.60;1.83;;;1.20;99.90;;;;;;4963448;28;20547;-69
2023/03/08 02:06:53;;;;;;;2.50;1.73;;;1.30;99.90;;;;;;4941801;28;20050;-67
2023/03/08 02:09:23;;;;;;;5.05;2.50;;;1.40;99.90;;;;;;4955744;28;20050;-74
2023/03/08 02:11:52;;;;;;;5.10;2.15;;;1.40;99.90;;;;;;4956072;28;20051;-65
2023/03/08 02:14:19;;;;;;;6.38;2.28;;;1.40;99.90;;;;;;4956624;28;20054;-65
2023/03/08 02:16:49;;;;;;;2.88;1.45;;;1.40;99.90;;;;;;4955538;28;20070;-68
2023/03/08 02:19:48;;;;;;;4.90;1.77;;;1.30;99.90;;;;;;4957678;28;20065;-68
2023/03/08 02:22:16;;;;;;;4.40;1.73;;;1.20;99.90;;;;;;4871487;28;20503;-67
2023/03/08 02:24:45;;;;;;;7.20;1.85;;;1.20;99.90;;;;;;4953754;28;20102;-67
2023/03/08 02:27:22;;;;;;;3.38;1.30;;;1.10;99.90;;;;;;4954640;28;20065;-65
2023/03/08 02:29:49;;;;;;;5.18;1.65;;;1.00;99.90;;;;;;4957371;28;20149;-67
2023/03/08 02:32:16;;;;;;;2.75;1.58;;;0.90;99.90;;;;;;4954036;28;20061;-65
2023/03/08 02:34:43;;;;;;;2.72;1.48;;;0.80;99.90;;;;;;4958359;28;20146;-67
2023/03/08 02:37:11;;;;;;;9.38;3.28;;;0.70;99.90;;;;;;4957219;28;20060;-65
2023/03/08 02:39:38;;;;;;;7.28;2.80;;;0.70;99.90;;;;;;4957243;28;20583;-70
2023/03/08 02:42:05;;;;;;;2.92;1.40;;;0.60;99.90;;;;;;4947083;28;20057;-70
2023/03/08 02:44:32;;;;;;;3.53;1.17;;;0.60;99.90;;;;;;4957180;28;20046;-68
2023/03/08 02:46:58;;;;;;;6.18;2.20;;;0.50;99.90;;;;;;4961021;28;20501;-67
2023/03/08 02:49:25;;;;;;;3.55;1.83;;;0.60;99.90;;;;;;4959685;28;20050;-65
2023/03/08 02:51:52;;;;;;;6.70;2.47;;;0.60;99.90;;;;;;4958115;28;20057;-65
2023/03/08 02:54:20;;;;;;;8.80;1.90;;;0.60;99.90;;;;;;4960104;28;20057;-65
2023/03/08 02:56:46;;;;;;;7.82;2.03;;;0.70;99.90;;;;;;4961135;28;20050;-68
2023/03/08 02:59:14;;;;;;;7.68;1.33;;;0.70;99.90;;;;;;4963695;28;20079;-66
2023/03/08 03:01:43;;;;;;;5.18;1.80;;;0.70;99.90;;;;;;4964084;28;20102;-66
2023/03/08 03:04:10;;;;;;;7.65;1.88;;;0.70;99.90;;;;;;4962213;28;20050;-67
2023/03/08 03:06:37;;;;;;;7.07;1.70;;;0.60;99.90;;;;;;4962636;28;20061;-65
2023/03/08 03:09:08;;;;;;;4.35;2.75;;;0.60;99.90;;;;;;4959979;28;20054;-65
2023/03/08 03:11:35;;;;;;;8.15;2.53;;;0.60;99.90;;;;;;4962588;28;20070;-67
2023/03/08 03:14:02;;;;;;;5.18;2.72;;;0.50;99.90;;;;;;4962391;28;20152;-66
2023/03/08 03:16:35;;;;;;;8.18;3.40;;;0.40;99.90;;;;;;4962236;28;20054;-65
2023/03/08 03:19:02;;;;;;;7.88;3.45;;;0.50;99.90;;;;;;4961516;28;20149;-68
2023/03/08 03:21:29;;;;;;;8.15;3.90;;;0.40;99.90;;;;;;4962038;28;21020;-68
2023/03/08 03:23:57;;;;;;;7.25;3.63;;;0.30;99.90;;;;;;4960074;28;20043;-69
2023/03/08 03:26:31;;;;;;;10.23;3.65;;;0.20;99.90;;;;;;4990768;28;20461;-65
2023/03/08 03:28:59;;;;;;;9.10;3.25;;;0.20;99.90;;;;;;4960511;28;20551;-66
2023/03/08 03:31:31;;;;;;;7.13;3.53;;;0.20;99.90;;;;;;4962081;28;20047;-66
2023/03/08 03:33:57;;;;;;;10.68;3.33;;;0.20;99.90;;;;;;4960428;28;20085;-68
2023/03/08 03:36:26;;;;;;;5.15;3.63;;;0.30;99.90;;;;;;4962199;28;20871;-65
2023/03/08 03:38:53;;;;;;;9.02;2.90;;;0.20;99.90;;;;;;4962871;28;20078;-68
2023/03/08 03:41:22;;;;;;;6.72;3.83;;;0.10;99.90;;;;;;4962249;28;20053;-64
2023/03/08 03:43:58;;;;;;;7.32;3.53;;;0.10;99.90;;;;;;4960060;28;20055;-65
2023/03/08 03:46:25;;;;;;;15.93;3.65;;;0.10;99.90;;;;;;4961279;28;20055;-65
2023/03/08 03:48:54;;;;;;;6.82;2.28;;;0.10;99.90;;;;;;4963950;28;20054;-67
2023/03/08 03:51:22;;;;;;;5.93;3.03;;;0.10;99.90;;;;;;4960348;28;20489;-70
2023/03/08 03:53:59;;;;;;;9.13;3.85;;;0.00;99.90;;;;;;4959332;28;20176;-64
2023/03/08 03:56:27;;;;;;;5.85;2.42;;;0.10;99.90;;;;;;4991963;28;20050;-65
2023/03/08 03:58:58;;;;;;;7.28;1.73;;;0.10;99.90;;;;;;4960794;28;20160;-64
2023/03/08 04:01:29;;;;;;;7.20;1.98;;;0.10;99.90;;;;;;4962699;28;20047;-67
2023/03/08 04:04:05;;;;;;;3.13;2.35;;;0.10;99.90;;;;;;4958716;28;20070;-64
2023/03/08 04:06:34;;;;;;;4.40;2.15;;;0.10;99.90;;;;;;4945275;28;20879;-63
2023/03/08 04:09:06;;;;;;;9.07;2.28;;;0.10;99.90;;;;;;4959400;28;20056;-68
2023/03/08 04:11:38;;;;;;;5.53;3.03;;;0.00;99.90;;;;;;4960868;28;20047;-68
2023/03/08 04:14:09;;;;;;;5.88;2.88;;;0.00;99.90;;;;;;4958373;28;20086;-64
2023/03/08 04:16:38;;;;;;;5.18;2.08;;;-0.10;99.90;;;;;;4961160;28;20120;-68
2023/03/08 04:19:12;;;;;;;6.22;2.85;;;-0.10;99.90;;;;;;4959597;28;20073;-64
2023/03/08 04:21:46;;;;;;;6.32;2.63;;;-0.10;99.90;;;;;;4961344;28;20054;-65
2023/03/08 04:24:15;;;;;;;4.68;2.35;;;-0.20;99.90;;;;;;4959466;28;20078;-67
2023/03/08 04:26:44;;;;;;;3.70;1.88;;;-0.20;99.90;;;;;;4961353;28;20075;-64
2023/03/08 04:29:15;;;;;;;7.63;2.30;;;-0.20;99.90;;;;;;4960528;28;20054;-65
2023/03/08 04:31:43;;;;;;;2.72;2.13;;;-0.30;99.90;;;;;;4961708;28;20085;-65
2023/03/08 04:34:13;;;;;;;;;;;-0.20;99.90;;;;;;4960383;28;20481;-65
2023/03/08 04:36:41;;;;;;;4.88;2.30;;;-0.20;99.90;;;;;;4960952;28;19925;-66
2023/03/08 04:39:08;;;;;;;3.70;2.10;;;-0.10;99.90;;;;;;4961709;28;20190;-65
2023/03/08 04:41:35;;;;;;;4.28;2.88;;;-0.10;99.90;;;;;;4961137;28;20050;-68
2023/03/08 04:44:10;;;;;;;3.88;2.10;;;-0.20;99.90;;;;;;4959129;28;20077;-66
2023/03/08 04:46:42;;;;;;;9.05;2.33;;;-0.20;99.90;;;;;;4976063;28;20053;-66
2023/03/08 04:49:14;;;;;;;6.88;2.10;;;-0.20;99.90;;;;;;4961462;28;20552;-67
2023/03/08 04:51:44;;;;;;;10.07;3.30;;;-0.20;99.90;;;;;;4992131;28;20584;-64
2023/03/08 04:54:11;;;;;;;6.32;2.65;;;-0.20;99.90;;;;;;4959691;28;20078;-66
2023/03/08 04:56:44;;;;;;;2.92;1.85;;;-0.20;99.90;;;;;;4960128;28;20062;-66
2023/03/08 04:59:13;;;;;;;3.22;1.80;;;-0.20;99.90;;;;;;4960735;28;21139;-66
2023/03/08 05:01:41;;;;;;;2.08;1.50;;;-0.20;99.90;;;;;;4961987;28;20119;-67
2023/03/08 05:04:10;;;;;;;6.00;1.92;;;-0.10;99.90;;;;;;4958664;28;20059;-67
2023/03/08 05:06:39;;;;;;;7.07;2.53;;;-0.10;99.90;;;;;;4961100;28;20050;-64
2023/03/08 05:09:07;;;;;;;4.15;1.40;;;-0.20;99.90;;;;;;4962074;28;20412;-66
2023/03/08 05:11:36;;;;;;;1.50;1.40;;;-0.20;99.90;;;;;;4960579;28;20051;-68
2023/03/08 05:14:03;;;;;;;4.07;1.90;;;-0.20;99.90;;;;;;4958567;28;20528;-66
2023/03/08 05:16:31;;;;;;;2.85;2.03;;;-0.20;99.90;;;;;;4960103;28;20059;-68
2023/03/08 05:18:58;;;;;;;1.40;1.30;;;-0.20;99.90;;;;;;4961178;28;20110;-67
2023/03/08 05:21:30;;;;;;;7.25;2.00;;;-0.20;99.90;;;;;;4959879;28;20039;-68
2023/03/08 05:23:59;;;;;;;2.10;1.90;;;-0.20;99.90;;;;;;4958697;28;20058;-65
2023/03/08 05:26:29;;;;;;;6.78;1.88;;;-0.20;99.90;;;;;;4960789;28;20051;-67
2023/03/08 05:29:00;;;;;;;2.22;1.48;;;-0.20;99.90;;;;;;4992418;28;20054;-64
2023/03/08 05:31:28;;;;;;;;;;;-0.20;99.90;;;;;;4960160;28;20138;-68
2023/03/08 05:33:57;;;;;;;4.13;1.67;;;-0.20;99.90;;;;;;4957492;28;20478;-63
2023/03/08 05:36:32;;;;;;;3.58;2.58;;;-0.20;99.90;;;;;;4961502;28;20145;-65
2023/03/08 05:39:00;;;;;;;1.77;1.20;;;-0.20;99.90;;;;;;4959919;28;20416;-66
2023/03/08 05:41:35;;;;;;;6.80;1.95;;;-0.20;99.90;;;;;;4959334;28;20051;-65
2023/03/08 05:44:04;;;;;;;5.47;2.00;;;-0.20;99.90;;;;;;4957814;28;20058;-67
2023/03/08 05:46:33;;;;;;;9.60;2.83;;;-0.20;99.90;;;;;;4959394;28;20149;-66
2023/03/08 05:49:01;;;;;;;3.80;2.30;;;-0.20;99.90;;;;;;4992007;28;20539;-65
2023/03/08 05:51:32;;;;;;;;;;;-0.20;99.90;;;;;;4959576;28;20222;-66
2023/03/08 05:53:59;;;;;;;8.48;3.10;;;-0.20;99.90;;;;;;4958654;28;19930;-64
2023/03/08 05:56:27;;;;;;;7.13;3.72;;;-0.20;99.90;;;;;;4959904;28;20064;-64
2023/03/08 05:59:03;;;;;;;10.40;4.22;;;-0.10;99.90;;;;;;4959079;28;20518;-65
2023/03/08 06:01:31;;;;;;;5.70;3.70;;;-0.20;99.90;;;;;;4958953;28;20043;-65
2023/03/08 06:04:07;;;;;;;9.63;2.85;;;-0.30;99.90;;;;;;4942242;28;20066;-65
2023/03/08 06:06:37;;;;;;;5.65;2.90;;;-0.30;99.90;;;;;;4959372;28;20042;-65
2023/03/08 06:09:05;;;;;;;8.00;2.97;;;-0.30;99.90;;;;;;4959608;28;20059;-68
2023/03/08 06:11:35;;;;;;;6.57;2.67;;;-0.30;99.90;;;;;;4959856;28;20943;-66
2023/03/08 06:14:02;;;;;;;5.30;3.50;;;-0.30;99.90;;;;;;4957242;28;20054;-65
2023/03/08 06:16:31;;;;;;;5.35;3.30;;;-0.30;99.90;;;;;;4957963;28;20059;-66
2023/03/08 06:18:59;;;;;;;7.50;4.97;;;-0.30;99.90;;;;;;4960584;28;20038;-63
2023/03/08 06:21:26;;;;;;;5.90;3.15;;;-0.30;99.90;;;;;;4959274;28;20393;-68
2023/03/08 06:24:02;;;;;;;6.38;3.38;;;-0.30;99.90;;;;;;4989200;28;20046;-67
2023/03/08 06:26:30;;;;;;;6.40;3.00;;;-0.30;99.90;;;;;;4958759;28;20631;-66
2023/03/08 06:28:57;;;;;;;5.03;3.78;;;-0.20;99.90;;;;;;4958986;28;20051;-66
2023/03/08 06:31:27;;;;;;;7.70;3.50;;;-0.30;99.90;;;;;;4959830;28;20050;-69
2023/03/08 06:33:55;;;;;;;7.32;3.53;;;-0.30;99.90;;;;;;4956697;28;20672;-65
2023/03/08 06:36:25;;;;;;;5.35;2.72;;;-0.30;99.90;;;;;;4959807;28;20050;-66
2023/03/08 06:38:52;;;;;;;4.85;3.15;;;-0.20;99.90;;;;;;4958278;28;20055;-67
2023/03/08 06:41:19;;;;;;;6.68;3.38;;;-0.30;99.90;;;;;;4956974;28;20050;-65
2023/03/08 06:43:51;;;;;;;7.03;4.40;;;-0.30;99.90;;;;;;4990601;28;20050;-64
2023/03/08 06:46:19;;;;;;;7.60;3.28;;;-0.30;99.90;;;;;;4955785;28;20503;-64
2023/03/08 06:48:48;;;;;;;7.18;2.58;;;-0.30;99.90;;;;;;4959531;28;20058;-64
2023/03/08 06:51:17;;;;;;;8.30;3.63;;;-0.30;99.90;;;;;;4957873;28;20054;-66
2023/03/08 06:53:45;;;;;;;5.43;4.00;;;-0.30;99.90;;;;;;4959122;28;20070;-64
2023/03/08 06:56:16;;;;;;;6.40;3.25;;;-0.40;99.90;;;;;;4956938;28;20743;-65
2023/03/08 06:58:43;;;;;;;8.45;4.55;;;-0.40;99.90;;;;;;4959253;28;21410;-66
2023/03/08 07:01:12;;;;;;;6.57;3.03;;;-0.40;99.90;;;;;;4959898;28;20475;-64
2023/03/08 07:03:40;;;;;;;5.28;2.65;;;-0.40;99.90;;;;;;4960966;28;20054;-67
2023/03/08 07:06:08;;;;;;;5.75;3.17;;;-0.40;99.90;;;;;;4957457;28;20141;-66
2023/03/08 07:08:36;;;;;;;4.53;3.33;;;-0.40;99.90;;;;;;4960152;28;20057;-66
2023/03/08 07:11:05;;;;;;;6.00;3.35;;;-0.40;99.90;;;;;;4959534;28;20125;-67
2023/03/08 07:13:32;;;;;;;7.20;3.03;;;-0.30;99.90;;;;;;4960314;28;20673;-66
2023/03/08 07:16:03;;;;;;;8.32;4.28;;;-0.40;99.90;;;;;;4958049;28;20074;-64
2023/03/08 07:18:30;;;;;;;11.15;3.85;;;-0.40;99.90;;;;;;4960466;28;20472;-69
2023/03/08 07:20:57;;;;;;;4.45;3.20;;;-0.30;99.90;;;;;;4958281;28;20043;-64
2023/03/08 07:23:24;;;;;;;3.95;2.60;;;-0.30;99.90;;;;;;4960863;28;20134;-64
2023/03/08 07:25:51;;;;;;;5.47;2.88;;;-0.30;99.90;;;;;;4960117;28;20061;-64
2023/03/08 07:28:20;;;;;;;9.52;3.47;;;-0.40;99.90;;;;;;4958617;28;20058;-66
2023/03/08 07:30:48;;;;;;;5.32;2.53;;;-0.40;99.90;;;;;;4959814;28;20063;-63
2023/03/08 07:33:18;;;;;;;8.77;2.80;;;-0.40;99.90;;;;;;4959910;28;20270;-69
2023/03/08 07:35:45;;;;;;;8.73;3.30;;;-0.40;99.90;;;;;;4958988;28;20050;-66
2023/03/08 07:38:12;;;;;;;4.53;2.55;;;-0.40;99.90;;;;;;4957952;28;22766;-69
2023/03/08 07:40:39;;;;;;;4.30;3.08;;;-0.40;99.90;;;;;;4960169;28;20094;-67
2023/03/08 07:43:06;;;;;;;5.47;2.67;;;-0.40;99.90;;;;;;4959860;28;20593;-67
2023/03/08 07:45:42;;;;;;;5.38;2.58;;;-0.50;99.90;;;;;;4962416;28;20058;-65
2023/03/08 07:48:08;;;;;;;8.63;2.83;;;-0.50;99.90;;;;;;4960737;28;20129;-66
2023/03/08 07:50:36;;;;;;;8.57;2.60;;;-0.50;99.90;;;;;;4963594;28;20076;-65
2023/03/08 07:53:03;;;;;;;5.10;2.70;;;-0.50;99.90;;;;;;4962533;28;20046;-66
2023/03/08 07:55:30;;;;;;;3.38;2.25;;;-0.50;99.90;;;;;;4964066;28;20057;-67
2023/03/08 07:57:57;;;;;;;5.15;2.25;;;-0.50;99.90;;;;;;4961155;28;20113;-66
2023/03/08 08:00:24;;;;;;;3.85;1.98;;;-0.60;99.90;;;;;;4963906;28;20509;-65
2023/03/08 08:02:52;;;;;;;5.90;2.95;;;-0.60;99.90;;;;;;4961800;28;20065;-67
2023/03/08 08:05:20;;;;;;;2.90;2.60;;;-0.50;99.90;;;;;;4963294;28;21609;-65
2023/03/08 08:07:48;;;;;;;3.03;2.60;;;-0.60;99.90;;;;;;4963168;28;20054;-67
2023/03/08 08:10:15;;;;;;;6.88;2.35;;;-0.60;99.90;;;;;;4960471;28;20201;-68
2023/03/08 08:12:42;;;;;;;3.75;2.25;;;-0.70;99.90;;;;;;4962351;28;20055;-66
2023/03/08 08:15:09;;;;;;;3.38;2.30;;;-0.70;99.90;;;;;;4963505;28;20051;-66
2023/03/08 08:17:36;;;;;;;5.22;2.22;;;-0.60;99.90;;;;;;4961721;28;20058;-66
2023/03/08 08:20:06;;;;;;;5.88;2.05;;;-0.60;99.90;;;;;;4961708;28;20051;-67
2023/03/08 08:22:35;;;;;;;12.38;2.65;;;-0.70;99.90;;;;;;4963583;28;20117;-65
2023/03/08 08:25:04;;;;;;;6.65;2.28;;;-0.70;99.90;;;;;;4962238;28;20047;-64
2023/03/08 08:27:31;;;;;;;3.03;1.83;;;-0.80;99.90;;;;;;4961395;28;20050;-64
2023/03/08 08:29:58;;;;;;;5.22;1.98;;;-0.70;99.90;;;;;;4961280;28;20057;-66
2023/03/08 08:32:25;;;;;;;4.20;2.70;;;-0.80;99.90;;;;;;4961905;28;20731;-66
2023/03/08 08:34:52;;;;;;;2.88;1.70;;;-0.70;99.90;;;;;;4962826;28;20051;-64
2023/03/08 08:37:19;;;;;;;9.32;2.70;;;-0.80;99.90;;;;;;4961085;28;20061;-66
2023/03/08 08:39:46;;;;;;;3.05;1.58;;;-0.80;99.90;;;;;;4962268;28;20054;-64
2023/03/08 08:42:13;;;;;;;2.80;1.63;;;-0.90;99.90;;;;;;4960650;28;20050;-65
2023/03/08 08:44:40;;;;;;;3.53;1.98;;;-0.80;99.90;;;;;;4961926;28;20050;-69
2023/03/08 08:47:07;;;;;;;6.65;1.83;;;-0.80;99.90;;;;;;4962050;28;20053;-66
2023/03/08 08:49:34;;;;;;;2.33;2.10;;;-0.90;99.90;;;;;;4962594;28;20047;-66
2023/03/08 08:52:01;;;;;;;6.68;2.08;;;-0.80;99.90;;;;;;4960841;28;20141;-66
2023/03/08 08:54:28;;;;;;;5.18;1.52;;;-0.80;99.90;;;;;;4960252;28;20074;-67
2023/03/08 08:56:55;;;;;;;4.57;2.03;;;-0.90;99.90;;;;;;4961785;28;20098;-64
2023/03/08 08:59:22;;;;;;;2.97;1.50;;;-0.90;99.90;;;;;;4962605;28;20080;-64
2023/03/08 09:01:49;;;;;;;3.63;1.92;;;-0.90;99.90;;;;;;4962127;28;20126;-66
2023/03/08 09:04:16;;;;;;;7.05;1.98;;;-0.80;99.90;;;;;;4959457;28;20057;-65
2023/03/08 09:06:43;;;;;;;4.18;1.83;;;-0.80;99.90;;;;;;4961983;28;20051;-64
2023/03/08 09:09:10;;;;;;;3.80;1.40;;;-0.80;99.90;;;;;;4961061;28;20101;-65
2023/03/08 09:11:37;;;;;;;5.95;2.95;;;-0.90;99.90;;;;;;4961930;28;20050;-67
2023/03/08 09:14:19;;;;;;;9.18;2.65;;;-0.80;99.90;;;;;;4959967;28;20102;-69
2023/03/08 09:16:46;;;;;;;4.60;2.00;;;-0.80;99.90;;;;;;4961661;28;21383;-66
2023/03/08 09:19:14;;;;;;;2.95;1.98;;;-0.70;99.90;;;;;;4961691;28;20514;-65
2023/03/08 09:21:41;;;;;;;4.57;1.63;;;-0.70;99.90;;;;;;4961871;28;20492;-68
2023/03/08 09:24:09;;;;;;;3.72;1.65;;;-0.70;99.90;;;;;;4959417;28;20047;-65
2023/03/08 09:26:36;;;;;;;3.35;1.60;;;-0.80;99.90;;;;;;4961215;28;20501;-66
2023/03/08 09:29:06;;;;;;;2.70;2.42;;;-0.80;99.90;;;;;;4960972;28;20133;-64
2023/03/08 09:31:35;;;;;;;4.03;1.90;;;-0.70;99.90;;;;;;4961166;28;20881;-69
2023/03/08 09:34:07;;;;;;;4.07;2.03;;;-0.80;99.90;;;;;;4959505;28;20559;-65
2023/03/08 09:36:35;;;;;;;2.45;1.88;;;-0.80;99.90;;;;;;4960856;28;20052;-65
2023/03/08 09:39:04;;;;;;;4.05;2.08;;;-0.80;99.90;;;;;;4961097;28;20066;-66
2023/03/08 09:41:44;;;;;;;6.65;1.70;;;-0.70;99.90;;;;;;4960621;28;20054;-67
2023/03/08 09:44:33;;;;;;;4.00;1.58;;;-0.70;99.90;;;;;;4959809;28;20130;-67
2023/03/08 09:47:10;;;;;;;6.17;1.67;;;-0.70;99.90;;;;;;4960735;28;20078;-69
2023/03/08 09:49:40;;;;;;;5.00;1.40;;;-0.70;99.90;;;;;;4961021;28;20061;-66
2023/03/08 09:52:20;;;;;;;4.05;1.77;;;-0.80;99.90;;;;;;4959015;28;21065;-64
2023/03/08 09:54:48;;;;;;;3.05;1.50;;;-0.80;99.90;;;;;;4960230;28;20088;-67
2023/03/08 09:57:25;;;;;;;3.55;1.10;;;-0.70;99.90;;;;;;4960635;28;20055;-69
2023/03/08 09:59:56;;;;;;;8.05;2.15;;;-0.70;99.90;;;;;;4957560;28;20794;-64
2023/03/08 10:02:32;;;;;;;2.35;1.30;;;-0.70;99.90;;;;;;4960049;28;20056;-65
2023/03/08 10:05:45;;;;;;;2.58;1.35;;;-0.70;99.90;;;;;;4960995;28;20050;-65
2023/03/08 10:08:24;;;;;;;2.83;1.33;;;-0.70;99.90;;;;;;4927736;28;20285;-65
2023/03/08 10:11:00;;;;;;;3.28;2.20;;;-0.60;99.90;;;;;;4961313;28;20054;-66
2023/03/08 10:13:42;;;;;;;5.38;1.67;;;-0.60;99.90;;;;;;4961247;28;20121;-71
2023/03/08 10:16:28;;;;;;;4.55;1.42;;;-0.60;99.90;;;;;;4958787;28;20073;-66
2023/03/08 10:19:13;;;;;;;4.00;1.45;;;-0.60;99.90;;;;;;4960910;28;20047;-66
2023/03/08 10:21:43;;;;;;;3.13;1.60;;;-0.50;99.90;;;;;;4959732;28;20137;-66
2023/03/08 10:24:26;;;;;;;2.35;1.15;;;-0.50;99.90;;;;;;4959201;28;20057;-64
2023/03/08 10:26:59;;;;;;;5.15;1.33;;;-0.50;99.90;;;;;;4960573;28;20082;-69
2023/03/08 10:29:26;;;;;;;3.85;1.80;;;-0.50;99.90;;;;;;4960621;28;20058;-67
2023/03/08 10:31:53;;;;;;;2.38;1.30;;;-0.40;99.90;;;;;;4958222;28;20046;-65
2023/03/08 10:34:24;;;;;;;9.15;3.03;;;-0.40;99.90;;;;;;4960330;28;20051;-66
2023/03/08 10:37:01;;;;;;;4.45;1.33;;;-0.40;99.90;;;;;;4959728;28;20215;-65
2023/03/08 10:39:29;;;;;;;1.98;1.17;;;-0.40;99.90;;;;;;4961051;28;20050;-67
2023/03/08 10:41:58;;;;;;;3.13;1.38;;;-0.50;99.90;;;;;;4957717;28;20123;-65
2023/03/08 10:44:39;;;;;;;4.50;1.65;;;-0.60;99.90;;;;;;4960689;28;20050;-66
2023/03/08 10:47:22;;;;;;;2.97;1.40;;;-0.60;99.90;;;;;;4959978;28;20060;-64
2023/03/08 10:50:12;;;;;;;7.95;1.38;;;-0.40;99.90;;;;;;4960232;28;20051;-68
2023/03/08 10:52:40;;;;;;;;;;;-0.50;99.90;;;;;;4958908;28;20508;-65
2023/03/08 10:55:29;;;;;;;3.42;1.45;;;-0.50;99.90;;;;;;4959167;28;20346;-65
2023/03/08 10:58:00;;;;;;;4.50;1.38;;;-0.40;99.90;;;;;;4957042;28;20142;-66
2023/03/08 11:00:36;;;;;;;3.22;1.65;;;-0.50;99.90;;;;;;4958218;28;20455;-64
2023/03/08 11:03:12;;;;;;;2.15;1.35;;;-0.50;99.90;;;;;;4958846;28;20047;-64
2023/03/08 11:05:54;;;;;;;3.38;1.83;;;-0.50;99.90;;;;;;4957185;28;20078;-68
2023/03/08 11:08:27;;;;;;;8.25;1.50;;;-0.40;99.90;;;;;;4957661;28;20067;-66
2023/03/08 11:11:05;;;;;;;2.28;1.48;;;-0.40;99.90;;;;;;4959005;28;20055;-66
2023/03/08 11:13:45;;;;;;;6.63;1.73;;;-0.40;99.90;;;;;;4957956;28;20713;-67
2023/03/08 11:16:43;;;;;;;3.20;1.70;;;-0.30;99.90;;;;;;4956510;28;22038;-68
2023/03/08 11:19:37;;;;;;;3.05;1.58;;;-0.40;99.90;;;;;;4962182;28;20133;-65
2023/03/08 11:22:13;;;;;;;4.80;1.15;;;-0.40;99.90;;;;;;4961825;28;20074;-65
2023/03/08 11:25:09;;;;;;;1.98;0.85;;;-0.50;99.90;;;;;;4963646;28;20046;-66
2023/03/08 11:28:07;;;;;;;8.40;1.33;;;-0.40;99.90;;;;;;4962739;28;20125;-67
2023/03/08 11:30:41;;;;;;;2.42;1.20;;;-0.40;99.90;;;;;;4941217;28;20085;-68
2023/03/08 11:33:43;;;;;;;3.30;2.70;;;-0.40;99.90;;;;;;4962657;28;20057;-65
2023/03/08 11:36:34;;;;;;;2.55;1.63;;;-0.40;99.90;;;;;;4961495;28;20056;-64
2023/03/08 11:39:32;;;;;;;7.00;1.27;;;-0.40;99.90;;;;;;4963728;28;20051;-66
2023/03/08 11:41:59;;;;;;;1.13;0.73;;;-0.30;99.90;;;;;;4960617;28;20057;-68
2023/03/08 11:44:33;;;;;;;2.80;1.10;;;-0.20;99.90;;;;;;4959942;28;20058;-65
2023/03/08 11:47:26;;;;;;;4.78;2.45;;;-0.30;99.90;;;;;;4962669;28;20050;-67
2023/03/08 11:50:05;;;;;;;2.45;1.40;;;-0.30;99.90;;;;;;4951208;28;20061;-67
2023/03/08 11:52:57;;;;;;;3.83;1.30;;;-0.30;99.90;;;;;;4963207;28;20077;-66
2023/03/08 11:56:01;;;;;;;3.35;1.08;;;-0.20;99.90;;;;;;4963374;28;20178;-66
2023/03/08 11:58:57;;;;;;;6.63;1.15;;;-0.20;99.90;;;;;;4960924;28;21048;-67
2023/03/08 12:01:55;;;;;;;1.10;0.90;;;-0.20;99.90;;;;;;4936121;28;20047;-66
2023/03/08 12:04:39;;;;;;;5.93;1.20;;;-0.10;99.90;;;;;;4960822;28;20610;-66
2023/03/08 12:07:22;;;;;;;2.67;1.38;;;-0.10;99.90;;;;;;4961737;28;20053;-65
2023/03/08 12:10:18;;;;;;;1.63;1.23;;;0.00;99.90;;;;;;4962112;28;20889;-64
2023/03/08 12:13:19;;;;;;;3.90;1.75;;;0.00;99.90;;;;;;4939778;28;20058;-65
2023/03/08 12:15:51;;;;;;;4.30;1.60;;;0.00;99.90;;;;;;4962179;28;20057;-65
2023/03/08 12:18:34;;;;;;;2.13;1.42;;;0.20;99.90;;;;;;4961148;28;20055;-67
2023/03/08 12:21:18;;;;;;;2.90;1.27;;;0.20;99.90;;;;;;4963021;28;20053;-65
2023/03/08 12:23:58;;;;;;;8.30;1.45;;;0.20;99.90;;;;;;4962401;28;20162;-66
2023/03/08 12:26:43;;;;;;;2.20;1.17;;;0.20;99.90;;;;;;4961331;28;20066;-67
2023/03/08 12:29:38;;;;;;;4.00;1.38;;;0.30;99.90;;;;;;4962484;28;20065;-67
2023/03/08 12:32:06;;;;;;;1.48;1.20;;;0.30;99.90;;;;;;4924862;28;20054;-68
2023/03/08 12:34:39;;;;;;;2.38;1.42;;;0.20;99.90;;;;;;4963406;28;20054;-66
2023/03/08 12:37:23;;;;;;;1.50;0.90;;;0.20;99.90;;;;;;4961191;28;20786;-69
2023/03/08 12:39:58;;;;;;;2.10;1.65;;;0.00;99.90;;;;;;4962384;28;20058;-66
2023/03/08 12:42:39;;;;;;;3.55;1.50;;;0.00;99.90;;;;;;4960523;28;20046;-66
2023/03/08 12:45:18;;;;;;;3.15;1.20;;;0.00;99.90;;;;;;4961892;28;20062;-66
2023/03/08 12:48:05;;;;;;;3.35;1.30;;;0.00;99.90;;;;;;4962386;28;20424;-66
2023/03/08 12:50:43;;;;;;;2.15;1.20;;;-0.10;99.90;;;;;;4961460;28;20411;-68
2023/03/08 12:53:37;;;;;;;2.60;1.45;;;0.00;99.90;;;;;;4961636;28;20053;-68
2023/03/08 12:56:10;;;;;;;5.28;1.27;;;0.00;99.90;;;;;;4959658;28;20057;-65
2023/03/08 12:58:47;;;;;;;4.25;1.27;;;0.10;99.90;;;;;;4962857;28;20053;-66
2023/03/08 13:01:23;;;;;;;4.40;1.10;;;0.10;99.90;;;;;;4962259;28;20054;-66
2023/03/08 13:03:50;;;;;;;4.05;1.10;;;0.10;99.90;;;;;;4962094;28;20145;-68
2023/03/08 13:06:24;;;;;;;1.20;1.02;;;0.00;99.90;;;;;;4960583;28;20054;-66
2023/03/08 13:08:59;;;;;;;4.07;1.30;;;0.00;99.90;;;;;;4960921;28;20046;-67
2023/03/08 13:11:37;;;;;;;2.22;0.85;;;0.00;99.90;;;;;;4960384;28;20320;-66
2023/03/08 13:14:27;;;;;;;4.03;1.60;;;-0.10;99.90;;;;;;4959527;28;20046;-66
2023/03/08 13:16:54;;;;;;;2.65;0.85;;;-0.10;99.90;;;;;;4962336;28;20124;-65
2023/03/08 13:19:27;;;;;;;1.10;0.82;;;-0.10;99.90;;;;;;4960745;28;20486;-66